sensor_id;sensor_type;location;lat;lon;timestamp;P1;durP1;ratioP1;P2;durP2;ratioP2
52858;SDS011;38721;53.098;6.596;2023-03-01T00:01:59;87.22;;;34.28;;
52858;SDS011;38721;53.098;6.596;2023-03-01T00:04:25;366.83;;;74.13;;
52858;SDS011;38721;53.098;6.596;2023-03-01T00:06:51;61.28;;;28.58;;
52858;SDS011;38721;53.098;6.596;2023-03-01T00:09:16;26.83;;;20.58;;
52858;SDS011;38721;53.098;6.596;2023-03-01T00:11:43;821.88;;;85.78;;
52858;SDS011;38721;53.098;6.596;2023-03-01T00:14:09;120.85;;;31.30;;
52858;SDS011;38721;53.098;6.596;2023-03-01T00:16:39;137.90;;;35.33;;
52858;SDS011;38721;53.098;6.596;2023-03-01T00:19:06;241.73;;;39.13;;
52858;SDS011;38721;53.098;6.596;2023-03-01T00:21:34;312.05;;;42.85;;
52858;SDS011;38721;53.098;6.596;2023-03-01T00:24:01;223.75;;;39.38;;
52858;SDS011;38721;53.098;6.596;2023-03-01T00:26:27;108.05;;;34.13;;
52858;SDS011;38721;53.098;6.596;2023-03-01T00:28:53;63.22;;;29.50;;
52858;SDS011;38721;53.098;6.596;2023-03-01T00:31:24;195.88;;;39.15;;
52858;SDS011;38721;53.098;6.596;2023-03-01T00:33:53;88.78;;;33.97;;
52858;SDS011;38721;53.098;6.596;2023-03-01T00:36:22;69.50;;;30.50;;
52858;SDS011;38721;53.098;6.596;2023-03-01T00:38:48;320.40;;;41.65;;
52858;SDS011;38721;53.098;6.596;2023-03-01T00:41:15;56.25;;;26.48;;
52858;SDS011;38721;53.098;6.596;2023-03-01T00:43:43;81.13;;;27.42;;
52858;SDS011;38721;53.098;6.596;2023-03-01T00:46:11;288.40;;;37.45;;
52858;SDS011;38721;53.098;6.596;2023-03-01T00:48:41;200.88;;;29.08;;
52858;SDS011;38721;53.098;6.596;2023-03-01T00:51:07;127.32;;;29.02;;
52858;SDS011;38721;53.098;6.596;2023-03-01T00:53:38;136.10;;;28.88;;
52858;SDS011;38721;53.098;6.596;2023-03-01T00:56:04;104.38;;;31.27;;
52858;SDS011;38721;53.098;6.596;2023-03-01T00:58:31;103.03;;;28.83;;
52858;SDS011;38721;53.098;6.596;2023-03-01T01:00:58;51.75;;;25.90;;
52858;SDS011;38721;53.098;6.596;2023-03-01T01:03:23;88.75;;;26.63;;
52858;SDS011;38721;53.098;6.596;2023-03-01T01:05:52;286.00;;;41.78;;
52858;SDS011;38721;53.098;6.596;2023-03-01T01:08:19;64.13;;;25.38;;
52858;SDS011;38721;53.098;6.596;2023-03-01T01:10:48;107.05;;;25.65;;
52858;SDS011;38721;53.098;6.596;2023-03-01T01:13:13;42.15;;;23.10;;
52858;SDS011;38721;53.098;6.596;2023-03-01T01:15:39;36.70;;;22.50;;
52858;SDS011;38721;53.098;6.596;2023-03-01T01:18:05;59.67;;;23.73;;
52858;SDS011;38721;53.098;6.596;2023-03-01T01:20:31;48.13;;;25.60;;
52858;SDS011;38721;53.098;6.596;2023-03-01T01:22:57;66.30;;;24.52;;
52858;SDS011;38721;53.098;6.596;2023-03-01T01:25:23;178.95;;;27.67;;
52858;SDS011;38721;53.098;6.596;2023-03-01T01:27:53;500.63;;;41.83;;
52858;SDS011;38721;53.098;6.596;2023-03-01T01:30:18;310.67;;;34.58;;
52858;SDS011;38721;53.098;6.596;2023-03-01T01:32:44;317.98;;;36.72;;
52858;SDS011;38721;53.098;6.596;2023-03-01T01:35:09;434.67;;;50.28;;
52858;SDS011;38721;53.098;6.596;2023-03-01T01:37:35;237.93;;;29.73;;
52858;SDS011;38721;53.098;6.596;2023-03-01T01:40:01;468.70;;;46.90;;
52858;SDS011;38721;53.098;6.596;2023-03-01T01:42:29;771.33;;;71.32;;
52858;SDS011;38721;53.098;6.596;2023-03-01T01:47:49;147.95;;;26.75;;
52858;SDS011;38721;53.098;6.596;2023-03-01T01:50:16;91.82;;;24.98;;
52858;SDS011;38721;53.098;6.596;2023-03-01T01:52:43;40.53;;;23.23;;
52858;SDS011;38721;53.098;6.596;2023-03-01T01:55:12;35.58;;;23.20;;
52858;SDS011;38721;53.098;6.596;2023-03-01T01:57:41;233.27;;;42.22;;
52858;SDS011;38721;53.098;6.596;2023-03-01T02:02:44;252.50;;;33.67;;
52858;SDS011;38721;53.098;6.596;2023-03-01T02:05:29;252.10;;;29.58;;
52858;SDS011;38721;53.098;6.596;2023-03-01T02:08:08;134.68;;;24.50;;
52858;SDS011;38721;53.098;6.596;2023-03-01T02:10:35;97.20;;;22.83;;
52858;SDS011;38721;53.098;6.596;2023-03-01T02:13:02;101.88;;;20.80;;
52858;SDS011;38721;53.098;6.596;2023-03-01T02:15:31;76.00;;;21.30;;
52858;SDS011;38721;53.098;6.596;2023-03-01T02:18:01;173.35;;;24.40;;
52858;SDS011;38721;53.098;6.596;2023-03-01T02:20:37;321.88;;;32.67;;
52858;SDS011;38721;53.098;6.596;2023-03-01T02:23:13;317.92;;;28.52;;
52858;SDS011;38721;53.098;6.596;2023-03-01T02:25:41;300.98;;;28.77;;
52858;SDS011;38721;53.098;6.596;2023-03-01T02:30:47;179.13;;;26.25;;
52858;SDS011;38721;53.098;6.596;2023-03-01T02:33:34;253.73;;;29.30;;
52858;SDS011;38721;53.098;6.596;2023-03-01T02:36:02;193.60;;;32.67;;
52858;SDS011;38721;53.098;6.596;2023-03-01T02:38:34;258.98;;;34.17;;
52858;SDS011;38721;53.098;6.596;2023-03-01T02:41:00;267.98;;;35.42;;
52858;SDS011;38721;53.098;6.596;2023-03-01T02:43:29;212.13;;;32.15;;
52858;SDS011;38721;53.098;6.596;2023-03-01T02:46:03;310.23;;;35.30;;
52858;SDS011;38721;53.098;6.596;2023-03-01T02:48:43;209.57;;;30.83;;
52858;SDS011;38721;53.098;6.596;2023-03-01T02:54:18;332.35;;;40.10;;
52858;SDS011;38721;53.098;6.596;2023-03-01T02:59:22;34.72;;;24.70;;
52858;SDS011;38721;53.098;6.596;2023-03-01T03:01:51;43.08;;;27.17;;
52858;SDS011;38721;53.098;6.596;2023-03-01T03:04:18;128.93;;;28.20;;
52858;SDS011;38721;53.098;6.596;2023-03-01T03:06:44;187.13;;;33.63;;
52858;SDS011;38721;53.098;6.596;2023-03-01T03:09:12;330.67;;;40.25;;
52858;SDS011;38721;53.098;6.596;2023-03-01T03:11:39;153.93;;;30.80;;
52858;SDS011;38721;53.098;6.596;2023-03-01T03:14:06;180.02;;;36.72;;
52858;SDS011;38721;53.098;6.596;2023-03-01T03:16:47;141.80;;;31.85;;
52858;SDS011;38721;53.098;6.596;2023-03-01T03:19:15;106.65;;;30.92;;
52858;SDS011;38721;53.098;6.596;2023-03-01T03:21:41;200.05;;;30.83;;
52858;SDS011;38721;53.098;6.596;2023-03-01T03:24:07;248.32;;;33.33;;
52858;SDS011;38721;53.098;6.596;2023-03-01T03:26:33;195.93;;;30.30;;
52858;SDS011;38721;53.098;6.596;2023-03-01T03:28:59;115.03;;;27.60;;
52858;SDS011;38721;53.098;6.596;2023-03-01T03:31:25;165.88;;;31.92;;
52858;SDS011;38721;53.098;6.596;2023-03-01T03:33:52;109.25;;;28.85;;
52858;SDS011;38721;53.098;6.596;2023-03-01T03:36:18;200.13;;;33.95;;
52858;SDS011;38721;53.098;6.596;2023-03-01T03:38:45;95.35;;;28.40;;
52858;SDS011;38721;53.098;6.596;2023-03-01T03:41:12;69.35;;;27.20;;
52858;SDS011;38721;53.098;6.596;2023-03-01T03:43:38;96.13;;;29.92;;
52858;SDS011;38721;53.098;6.596;2023-03-01T03:46:05;165.85;;;32.10;;
52858;SDS011;38721;53.098;6.596;2023-03-01T03:48:42;124.55;;;30.30;;
52858;SDS011;38721;53.098;6.596;2023-03-01T03:51:09;95.05;;;28.08;;
52858;SDS011;38721;53.098;6.596;2023-03-01T03:53:40;109.95;;;29.48;;
52858;SDS011;38721;53.098;6.596;2023-03-01T03:56:06;242.73;;;37.95;;
52858;SDS011;38721;53.098;6.596;2023-03-01T03:58:32;247.10;;;34.72;;
52858;SDS011;38721;53.098;6.596;2023-03-01T04:00:58;122.97;;;30.27;;
52858;SDS011;38721;53.098;6.596;2023-03-01T04:03:26;41.33;;;24.65;;
52858;SDS011;38721;53.098;6.596;2023-03-01T04:05:53;34.50;;;21.95;;
52858;SDS011;38721;53.098;6.596;2023-03-01T04:08:19;27.48;;;22.00;;
52858;SDS011;38721;53.098;6.596;2023-03-01T04:10:48;24.95;;;19.90;;
52858;SDS011;38721;53.098;6.596;2023-03-01T04:13:17;25.90;;;20.83;;
52858;SDS011;38721;53.098;6.596;2023-03-01T04:15:54;24.85;;;19.60;;
52858;SDS011;38721;53.098;6.596;2023-03-01T04:18:21;27.90;;;22.48;;
52858;SDS011;38721;53.098;6.596;2023-03-01T04:20:48;27.30;;;22.13;;
52858;SDS011;38721;53.098;6.596;2023-03-01T04:23:17;36.40;;;25.95;;
52858;SDS011;38721;53.098;6.596;2023-03-01T04:25:46;43.38;;;26.08;;
52858;SDS011;38721;53.098;6.596;2023-03-01T04:31:01;29.80;;;24.15;;
52858;SDS011;38721;53.098;6.596;2023-03-01T04:33:37;29.42;;;22.95;;
52858;SDS011;38721;53.098;6.596;2023-03-01T04:36:17;27.27;;;21.90;;
52858;SDS011;38721;53.098;6.596;2023-03-01T04:38:46;28.60;;;22.05;;
52858;SDS011;38721;53.098;6.596;2023-03-01T04:41:12;28.90;;;23.83;;
52858;SDS011;38721;53.098;6.596;2023-03-01T04:43:39;30.08;;;23.58;;
52858;SDS011;38721;53.098;6.596;2023-03-01T04:46:06;30.15;;;22.98;;
52858;SDS011;38721;53.098;6.596;2023-03-01T04:48:36;30.08;;;22.55;;
52858;SDS011;38721;53.098;6.596;2023-03-01T04:51:03;30.25;;;23.65;;
52858;SDS011;38721;53.098;6.596;2023-03-01T04:53:30;33.38;;;24.27;;
52858;SDS011;38721;53.098;6.596;2023-03-01T04:55:57;29.45;;;23.13;;
52858;SDS011;38721;53.098;6.596;2023-03-01T04:58:24;27.50;;;22.20;;
52858;SDS011;38721;53.098;6.596;2023-03-01T05:00:51;30.98;;;22.88;;
52858;SDS011;38721;53.098;6.596;2023-03-01T05:03:18;25.85;;;21.10;;
52858;SDS011;38721;53.098;6.596;2023-03-01T05:05:46;25.88;;;21.48;;
52858;SDS011;38721;53.098;6.596;2023-03-01T05:08:13;31.73;;;24.13;;
52858;SDS011;38721;53.098;6.596;2023-03-01T05:10:43;29.73;;;23.55;;
52858;SDS011;38721;53.098;6.596;2023-03-01T05:13:14;34.13;;;25.25;;
52858;SDS011;38721;53.098;6.596;2023-03-01T05:15:46;29.17;;;22.55;;
52858;SDS011;38721;53.098;6.596;2023-03-01T05:18:13;27.48;;;21.75;;
52858;SDS011;38721;53.098;6.596;2023-03-01T05:20:39;31.75;;;24.10;;
52858;SDS011;38721;53.098;6.596;2023-03-01T05:23:05;32.40;;;24.63;;
52858;SDS011;38721;53.098;6.596;2023-03-01T05:25:31;33.28;;;24.25;;
52858;SDS011;38721;53.098;6.596;2023-03-01T05:27:59;31.02;;;23.98;;
52858;SDS011;38721;53.098;6.596;2023-03-01T05:30:32;34.20;;;25.23;;
52858;SDS011;38721;53.098;6.596;2023-03-01T05:32:59;33.88;;;25.60;;
52858;SDS011;38721;53.098;6.596;2023-03-01T05:35:25;28.35;;;22.42;;
52858;SDS011;38721;53.098;6.596;2023-03-01T05:37:51;27.08;;;21.92;;
52858;SDS011;38721;53.098;6.596;2023-03-01T05:40:19;31.38;;;23.83;;
52858;SDS011;38721;53.098;6.596;2023-03-01T05:45:17;29.15;;;23.00;;
52858;SDS011;38721;53.098;6.596;2023-03-01T05:47:44;25.73;;;21.52;;
52858;SDS011;38721;53.098;6.596;2023-03-01T05:50:18;30.00;;;23.40;;
52858;SDS011;38721;53.098;6.596;2023-03-01T05:52:52;31.20;;;24.00;;
52858;SDS011;38721;53.098;6.596;2023-03-01T05:55:33;29.35;;;23.40;;
52858;SDS011;38721;53.098;6.596;2023-03-01T05:58:01;33.20;;;24.85;;
52858;SDS011;38721;53.098;6.596;2023-03-01T06:00:29;28.90;;;23.42;;
52858;SDS011;38721;53.098;6.596;2023-03-01T06:02:56;29.33;;;22.73;;
52858;SDS011;38721;53.098;6.596;2023-03-01T06:05:22;26.27;;;21.05;;
52858;SDS011;38721;53.098;6.596;2023-03-01T06:07:48;29.65;;;22.92;;
52858;SDS011;38721;53.098;6.596;2023-03-01T06:10:16;28.20;;;22.45;;
52858;SDS011;38721;53.098;6.596;2023-03-01T06:12:43;28.08;;;22.00;;
52858;SDS011;38721;53.098;6.596;2023-03-01T06:15:09;36.67;;;25.17;;
52858;SDS011;38721;53.098;6.596;2023-03-01T06:17:38;68.85;;;29.17;;
52858;SDS011;38721;53.098;6.596;2023-03-01T06:20:05;32.70;;;24.67;;
52858;SDS011;38721;53.098;6.596;2023-03-01T06:22:34;30.77;;;22.63;;
52858;SDS011;38721;53.098;6.596;2023-03-01T06:24:59;44.03;;;28.65;;
52858;SDS011;38721;53.098;6.596;2023-03-01T06:27:25;46.15;;;29.55;;
52858;SDS011;38721;53.098;6.596;2023-03-01T06:29:51;33.20;;;23.90;;
52858;SDS011;38721;53.098;6.596;2023-03-01T06:32:16;33.40;;;24.95;;
52858;SDS011;38721;53.098;6.596;2023-03-01T06:34:42;30.92;;;23.80;;
52858;SDS011;38721;53.098;6.596;2023-03-01T06:37:08;32.70;;;23.08;;
52858;SDS011;38721;53.098;6.596;2023-03-01T06:39:34;30.98;;;23.42;;
52858;SDS011;38721;53.098;6.596;2023-03-01T06:41:59;28.13;;;22.25;;
52858;SDS011;38721;53.098;6.596;2023-03-01T06:44:25;27.40;;;22.67;;
52858;SDS011;38721;53.098;6.596;2023-03-01T06:46:51;27.13;;;21.90;;
52858;SDS011;38721;53.098;6.596;2023-03-01T06:49:17;29.27;;;21.73;;
52858;SDS011;38721;53.098;6.596;2023-03-01T06:51:43;30.35;;;22.98;;
52858;SDS011;38721;53.098;6.596;2023-03-01T06:54:09;28.17;;;21.88;;
52858;SDS011;38721;53.098;6.596;2023-03-01T06:56:35;29.70;;;22.23;;
52858;SDS011;38721;53.098;6.596;2023-03-01T06:59:01;28.35;;;21.55;;
52858;SDS011;38721;53.098;6.596;2023-03-01T07:01:27;27.75;;;21.40;;
52858;SDS011;38721;53.098;6.596;2023-03-01T07:03:57;29.17;;;21.45;;
52858;SDS011;38721;53.098;6.596;2023-03-01T07:06:23;30.15;;;22.33;;
52858;SDS011;38721;53.098;6.596;2023-03-01T07:08:48;28.17;;;22.05;;
52858;SDS011;38721;53.098;6.596;2023-03-01T07:11:14;28.48;;;21.42;;
52858;SDS011;38721;53.098;6.596;2023-03-01T07:13:40;27.60;;;21.55;;
52858;SDS011;38721;53.098;6.596;2023-03-01T07:16:10;29.38;;;20.65;;
52858;SDS011;38721;53.098;6.596;2023-03-01T07:18:35;26.95;;;19.80;;
52858;SDS011;38721;53.098;6.596;2023-03-01T07:21:07;25.73;;;18.80;;
52858;SDS011;38721;53.098;6.596;2023-03-01T07:23:36;27.35;;;17.83;;
52858;SDS011;38721;53.098;6.596;2023-03-01T07:26:01;29.33;;;18.52;;
52858;SDS011;38721;53.098;6.596;2023-03-01T07:28:27;27.23;;;18.63;;
52858;SDS011;38721;53.098;6.596;2023-03-01T07:30:54;30.95;;;19.02;;
52858;SDS011;38721;53.098;6.596;2023-03-01T07:33:19;28.98;;;19.55;;
52858;SDS011;38721;53.098;6.596;2023-03-01T07:35:46;27.75;;;18.48;;
52858;SDS011;38721;53.098;6.596;2023-03-01T07:38:11;30.15;;;18.88;;
52858;SDS011;38721;53.098;6.596;2023-03-01T07:40:37;26.30;;;18.13;;
52858;SDS011;38721;53.098;6.596;2023-03-01T07:43:02;27.80;;;18.33;;
52858;SDS011;38721;53.098;6.596;2023-03-01T07:45:28;29.52;;;19.48;;
52858;SDS011;38721;53.098;6.596;2023-03-01T07:47:54;29.85;;;20.35;;
52858;SDS011;38721;53.098;6.596;2023-03-01T07:50:21;30.52;;;20.08;;
52858;SDS011;38721;53.098;6.596;2023-03-01T07:52:48;29.13;;;19.67;;
52858;SDS011;38721;53.098;6.596;2023-03-01T07:55:14;31.45;;;20.38;;
52858;SDS011;38721;53.098;6.596;2023-03-01T07:57:41;32.28;;;20.75;;
52858;SDS011;38721;53.098;6.596;2023-03-01T08:00:08;28.52;;;19.15;;
52858;SDS011;38721;53.098;6.596;2023-03-01T08:02:39;31.42;;;20.75;;
52858;SDS011;38721;53.098;6.596;2023-03-01T08:05:07;30.48;;;20.80;;
52858;SDS011;38721;53.098;6.596;2023-03-01T08:07:34;27.55;;;18.73;;
52858;SDS011;38721;53.098;6.596;2023-03-01T08:10:00;36.17;;;23.05;;
52858;SDS011;38721;53.098;6.596;2023-03-01T08:12:25;36.13;;;22.38;;
52858;SDS011;38721;53.098;6.596;2023-03-01T08:14:53;40.25;;;24.63;;
52858;SDS011;38721;53.098;6.596;2023-03-01T08:17:19;34.70;;;23.75;;
52858;SDS011;38721;53.098;6.596;2023-03-01T08:19:44;35.65;;;23.52;;
52858;SDS011;38721;53.098;6.596;2023-03-01T08:22:10;36.03;;;23.80;;
52858;SDS011;38721;53.098;6.596;2023-03-01T08:24:35;35.80;;;23.02;;
52858;SDS011;38721;53.098;6.596;2023-03-01T08:27:01;33.78;;;22.77;;
52858;SDS011;38721;53.098;6.596;2023-03-01T08:29:29;42.25;;;25.58;;
52858;SDS011;38721;53.098;6.596;2023-03-01T08:31:56;38.35;;;24.80;;
52858;SDS011;38721;53.098;6.596;2023-03-01T08:34:22;42.05;;;24.52;;
52858;SDS011;38721;53.098;6.596;2023-03-01T08:36:48;40.50;;;25.38;;
52858;SDS011;38721;53.098;6.596;2023-03-01T08:39:16;36.95;;;24.73;;
52858;SDS011;38721;53.098;6.596;2023-03-01T08:41:44;35.30;;;23.17;;
52858;SDS011;38721;53.098;6.596;2023-03-01T08:44:13;40.65;;;24.98;;
52858;SDS011;38721;53.098;6.596;2023-03-01T08:46:42;33.85;;;22.48;;
52858;SDS011;38721;53.098;6.596;2023-03-01T08:49:11;36.00;;;23.80;;
52858;SDS011;38721;53.098;6.596;2023-03-01T08:51:40;36.17;;;24.58;;
52858;SDS011;38721;53.098;6.596;2023-03-01T08:54:10;38.88;;;25.83;;
52858;SDS011;38721;53.098;6.596;2023-03-01T08:56:48;38.95;;;25.55;;
52858;SDS011;38721;53.098;6.596;2023-03-01T08:59:34;41.28;;;26.60;;
52858;SDS011;38721;53.098;6.596;2023-03-01T09:02:04;42.58;;;27.42;;
52858;SDS011;38721;53.098;6.596;2023-03-01T09:04:31;45.58;;;28.65;;
52858;SDS011;38721;53.098;6.596;2023-03-01T09:06:58;39.65;;;25.65;;
52858;SDS011;38721;53.098;6.596;2023-03-01T09:09:26;41.03;;;24.88;;
52858;SDS011;38721;53.098;6.596;2023-03-01T09:11:52;39.75;;;26.15;;
52858;SDS011;38721;53.098;6.596;2023-03-01T09:14:18;40.28;;;25.88;;
52858;SDS011;38721;53.098;6.596;2023-03-01T09:16:46;43.17;;;27.95;;
52858;SDS011;38721;53.098;6.596;2023-03-01T09:19:12;42.15;;;26.20;;
52858;SDS011;38721;53.098;6.596;2023-03-01T09:21:39;38.63;;;25.27;;
52858;SDS011;38721;53.098;6.596;2023-03-01T09:24:05;38.70;;;25.65;;
52858;SDS011;38721;53.098;6.596;2023-03-01T09:26:32;47.08;;;28.13;;
52858;SDS011;38721;53.098;6.596;2023-03-01T09:28:57;45.95;;;29.20;;
52858;SDS011;38721;53.098;6.596;2023-03-01T09:31:24;43.50;;;28.67;;
52858;SDS011;38721;53.098;6.596;2023-03-01T09:33:51;54.25;;;32.47;;
52858;SDS011;38721;53.098;6.596;2023-03-01T09:36:19;49.80;;;32.83;;
52858;SDS011;38721;53.098;6.596;2023-03-01T09:38:47;50.35;;;30.15;;
52858;SDS011;38721;53.098;6.596;2023-03-01T09:46:19;55.08;;;32.88;;
52858;SDS011;38721;53.098;6.596;2023-03-01T09:48:51;51.45;;;33.38;;
52858;SDS011;38721;53.098;6.596;2023-03-01T09:51:32;52.08;;;34.15;;
52858;SDS011;38721;53.098;6.596;2023-03-01T09:54:03;45.55;;;29.95;;
52858;SDS011;38721;53.098;6.596;2023-03-01T09:56:37;49.75;;;30.60;;
52858;SDS011;38721;53.098;6.596;2023-03-01T10:04:54;39.60;;;25.23;;
52858;SDS011;38721;53.098;6.596;2023-03-01T10:07:37;37.47;;;23.90;;
52858;SDS011;38721;53.098;6.596;2023-03-01T10:10:28;35.33;;;23.05;;
52858;SDS011;38721;53.098;6.596;2023-03-01T10:13:00;36.30;;;21.45;;
52858;SDS011;38721;53.098;6.596;2023-03-01T10:15:54;34.80;;;22.33;;
52858;SDS011;38721;53.098;6.596;2023-03-01T10:18:24;36.28;;;22.83;;
52858;SDS011;38721;53.098;6.596;2023-03-01T10:20:55;32.80;;;21.45;;
52858;SDS011;38721;53.098;6.596;2023-03-01T10:23:24;30.98;;;20.08;;
52858;SDS011;38721;53.098;6.596;2023-03-01T10:31:36;34.47;;;23.95;;
52858;SDS011;38721;53.098;6.596;2023-03-01T10:34:10;34.65;;;22.05;;
52858;SDS011;38721;53.098;6.596;2023-03-01T10:36:36;31.40;;;23.10;;
52858;SDS011;38721;53.098;6.596;2023-03-01T10:39:11;33.15;;;22.63;;
52858;SDS011;38721;53.098;6.596;2023-03-01T10:41:55;36.88;;;25.35;;
52858;SDS011;38721;53.098;6.596;2023-03-01T10:49:57;28.20;;;19.90;;
52858;SDS011;38721;53.098;6.596;2023-03-01T10:52:27;25.50;;;17.27;;
52858;SDS011;38721;53.098;6.596;2023-03-01T10:54:59;24.00;;;16.48;;
52858;SDS011;38721;53.098;6.596;2023-03-01T10:57:30;26.60;;;16.60;;
52858;SDS011;38721;53.098;6.596;2023-03-01T11:02:48;25.73;;;19.10;;
52858;SDS011;38721;53.098;6.596;2023-03-01T11:05:18;31.20;;;20.13;;
52858;SDS011;38721;53.098;6.596;2023-03-01T11:10:22;30.08;;;20.00;;
52858;SDS011;38721;53.098;6.596;2023-03-01T11:12:53;31.55;;;20.77;;
52858;SDS011;38721;53.098;6.596;2023-03-01T11:15:26;29.92;;;20.38;;
52858;SDS011;38721;53.098;6.596;2023-03-01T11:17:53;26.10;;;19.08;;
52858;SDS011;38721;53.098;6.596;2023-03-01T11:20:25;28.38;;;19.15;;
52858;SDS011;38721;53.098;6.596;2023-03-01T11:23:05;21.45;;;16.38;;
52858;SDS011;38721;53.098;6.596;2023-03-01T11:25:37;24.48;;;17.60;;
52858;SDS011;38721;53.098;6.596;2023-03-01T11:28:06;20.42;;;15.30;;
52858;SDS011;38721;53.098;6.596;2023-03-01T11:33:32;21.65;;;14.75;;
52858;SDS011;38721;53.098;6.596;2023-03-01T11:36:07;18.83;;;14.02;;
52858;SDS011;38721;53.098;6.596;2023-03-01T11:39:03;18.90;;;12.98;;
52858;SDS011;38721;53.098;6.596;2023-03-01T11:41:39;16.55;;;12.75;;
52858;SDS011;38721;53.098;6.596;2023-03-01T11:44:25;15.60;;;12.57;;
52858;SDS011;38721;53.098;6.596;2023-03-01T11:50:01;17.17;;;12.57;;
52858;SDS011;38721;53.098;6.596;2023-03-01T11:52:48;18.13;;;13.43;;
52858;SDS011;38721;53.098;6.596;2023-03-01T12:06:57;16.73;;;13.27;;
52858;SDS011;38721;53.098;6.596;2023-03-01T12:09:28;20.05;;;13.65;;
52858;SDS011;38721;53.098;6.596;2023-03-01T12:12:26;18.15;;;13.57;;
52858;SDS011;38721;53.098;6.596;2023-03-01T12:18:06;19.17;;;13.48;;
52858;SDS011;38721;53.098;6.596;2023-03-01T12:20:48;18.13;;;14.57;;
52858;SDS011;38721;53.098;6.596;2023-03-01T12:23:24;18.95;;;14.77;;
52858;SDS011;38721;53.098;6.596;2023-03-01T12:26:42;19.02;;;14.25;;
52858;SDS011;38721;53.098;6.596;2023-03-01T12:28:55;17.70;;;13.80;;
52858;SDS011;38721;53.098;6.596;2023-03-01T12:31:48;18.90;;;13.70;;
52858;SDS011;38721;53.098;6.596;2023-03-01T12:39:51;16.63;;;13.07;;
52858;SDS011;38721;53.098;6.596;2023-03-01T12:45:24;19.00;;;14.63;;
52858;SDS011;38721;53.098;6.596;2023-03-01T12:48:17;18.45;;;14.68;;
52858;SDS011;38721;53.098;6.596;2023-03-01T12:50:47;20.50;;;15.35;;
52858;SDS011;38721;53.098;6.596;2023-03-01T12:53:26;20.15;;;14.32;;
52858;SDS011;38721;53.098;6.596;2023-03-01T12:56:17;17.33;;;13.63;;
52858;SDS011;38721;53.098;6.596;2023-03-01T13:09:30;18.70;;;14.95;;
52858;SDS011;38721;53.098;6.596;2023-03-01T13:11:59;18.67;;;14.00;;
52858;SDS011;38721;53.098;6.596;2023-03-01T13:16:51;18.85;;;14.52;;
52858;SDS011;38721;53.098;6.596;2023-03-01T13:19:21;18.52;;;14.75;;
52858;SDS011;38721;53.098;6.596;2023-03-01T13:21:54;19.17;;;14.70;;
52858;SDS011;38721;53.098;6.596;2023-03-01T13:32:29;20.37;;;14.83;;
52858;SDS011;38721;53.098;6.596;2023-03-01T13:35:08;20.83;;;14.68;;
52858;SDS011;38721;53.098;6.596;2023-03-01T13:37:51;18.27;;;15.02;;
52858;SDS011;38721;53.098;6.596;2023-03-01T13:42:49;19.25;;;14.50;;
52858;SDS011;38721;53.098;6.596;2023-03-01T13:47:47;18.77;;;14.43;;
52858;SDS011;38721;53.098;6.596;2023-03-01T13:50:28;17.10;;;14.10;;
52858;SDS011;38721;53.098;6.596;2023-03-01T13:52:59;19.20;;;15.07;;
52858;SDS011;38721;53.098;6.596;2023-03-01T13:55:38;20.15;;;15.18;;
52858;SDS011;38721;53.098;6.596;2023-03-01T13:58:16;20.30;;;15.52;;
52858;SDS011;38721;53.098;6.596;2023-03-01T14:01:05;19.33;;;15.15;;
52858;SDS011;38721;53.098;6.596;2023-03-01T14:03:32;19.92;;;15.45;;
52858;SDS011;38721;53.098;6.596;2023-03-01T14:08:32;19.40;;;16.02;;
52858;SDS011;38721;53.098;6.596;2023-03-01T14:19:55;16.95;;;14.77;;
52858;SDS011;38721;53.098;6.596;2023-03-01T14:24:59;16.65;;;14.80;;
52858;SDS011;38721;53.098;6.596;2023-03-01T14:27:27;22.10;;;15.30;;
52858;SDS011;38721;53.098;6.596;2023-03-01T14:32:41;18.88;;;15.93;;
52858;SDS011;38721;53.098;6.596;2023-03-01T14:37:54;18.98;;;15.48;;
52858;SDS011;38721;53.098;6.596;2023-03-01T14:40:27;17.77;;;15.20;;
52858;SDS011;38721;53.098;6.596;2023-03-01T14:42:56;18.27;;;16.17;;
52858;SDS011;38721;53.098;6.596;2023-03-01T14:45:25;17.67;;;15.40;;
52858;SDS011;38721;53.098;6.596;2023-03-01T14:47:54;17.40;;;14.88;;
52858;SDS011;38721;53.098;6.596;2023-03-01T14:50:27;18.33;;;15.23;;
52858;SDS011;38721;53.098;6.596;2023-03-01T14:53:01;17.40;;;14.95;;
52858;SDS011;38721;53.098;6.596;2023-03-01T14:55:33;17.73;;;14.65;;
52858;SDS011;38721;53.098;6.596;2023-03-01T14:58:08;16.25;;;14.30;;
52858;SDS011;38721;53.098;6.596;2023-03-01T15:00:37;15.88;;;14.27;;
52858;SDS011;38721;53.098;6.596;2023-03-01T15:03:13;16.58;;;14.73;;
52858;SDS011;38721;53.098;6.596;2023-03-01T15:05:49;17.08;;;15.00;;
52858;SDS011;38721;53.098;6.596;2023-03-01T15:08:23;18.08;;;14.32;;
52858;SDS011;38721;53.098;6.596;2023-03-01T15:11:05;17.42;;;14.57;;
52858;SDS011;38721;53.098;6.596;2023-03-01T15:13:49;17.25;;;15.38;;
52858;SDS011;38721;53.098;6.596;2023-03-01T15:16:17;21.02;;;15.15;;
52858;SDS011;38721;53.098;6.596;2023-03-01T15:18:46;16.85;;;14.43;;
52858;SDS011;38721;53.098;6.596;2023-03-01T15:23:56;18.05;;;16.00;;
52858;SDS011;38721;53.098;6.596;2023-03-01T15:26:49;19.27;;;15.88;;
52858;SDS011;38721;53.098;6.596;2023-03-01T15:29:24;18.48;;;15.48;;
52858;SDS011;38721;53.098;6.596;2023-03-01T15:34:33;18.23;;;16.02;;
52858;SDS011;38721;53.098;6.596;2023-03-01T15:37:02;17.30;;;15.32;;
52858;SDS011;38721;53.098;6.596;2023-03-01T15:42:12;18.02;;;15.52;;
52858;SDS011;38721;53.098;6.596;2023-03-01T15:45:08;23.00;;;15.32;;
52858;SDS011;38721;53.098;6.596;2023-03-01T15:47:36;19.17;;;15.10;;
52858;SDS011;38721;53.098;6.596;2023-03-01T15:50:05;19.63;;;14.88;;
52858;SDS011;38721;53.098;6.596;2023-03-01T15:52:45;16.35;;;14.40;;
52858;SDS011;38721;53.098;6.596;2023-03-01T15:55:24;18.65;;;14.50;;
52858;SDS011;38721;53.098;6.596;2023-03-01T15:58:05;18.48;;;15.60;;
52858;SDS011;38721;53.098;6.596;2023-03-01T16:00:38;18.63;;;15.68;;
52858;SDS011;38721;53.098;6.596;2023-03-01T16:03:05;18.70;;;15.38;;
52858;SDS011;38721;53.098;6.596;2023-03-01T16:05:33;17.73;;;15.38;;
52858;SDS011;38721;53.098;6.596;2023-03-01T16:08:00;16.90;;;14.85;;
52858;SDS011;38721;53.098;6.596;2023-03-01T16:10:26;17.05;;;15.25;;
52858;SDS011;38721;53.098;6.596;2023-03-01T16:12:52;16.38;;;14.40;;
52858;SDS011;38721;53.098;6.596;2023-03-01T16:15:28;17.30;;;14.68;;
52858;SDS011;38721;53.098;6.596;2023-03-01T16:17:55;18.67;;;14.55;;
52858;SDS011;38721;53.098;6.596;2023-03-01T16:20:23;16.15;;;14.45;;
52858;SDS011;38721;53.098;6.596;2023-03-01T16:22:49;16.48;;;14.65;;
52858;SDS011;38721;53.098;6.596;2023-03-01T16:25:16;17.80;;;14.07;;
52858;SDS011;38721;53.098;6.596;2023-03-01T16:27:44;17.02;;;14.82;;
52858;SDS011;38721;53.098;6.596;2023-03-01T16:30:18;17.33;;;15.35;;
52858;SDS011;38721;53.098;6.596;2023-03-01T16:32:46;16.65;;;14.60;;
52858;SDS011;38721;53.098;6.596;2023-03-01T16:35:13;17.17;;;14.25;;
52858;SDS011;38721;53.098;6.596;2023-03-01T16:37:44;18.88;;;15.27;;
52858;SDS011;38721;53.098;6.596;2023-03-01T16:40:31;19.17;;;14.43;;
52858;SDS011;38721;53.098;6.596;2023-03-01T16:42:56;17.20;;;15.35;;
52858;SDS011;38721;53.098;6.596;2023-03-01T16:45:25;18.67;;;15.32;;